PAMD METAR and TAF weather

Enter ICAO airport designator
Station Type Date Time Source
PAMD METAR 2020/06/03 20:51 UTC NOAA

PAMD 032051Z AUTO 09016KT 10SM CLR 10/08 A2996 RMK AO2 SLP133 T01000078 52012


Station Type Date Time Source
PAMD Decoded METAR 2020/06/03 20:51 UTC NOAA

Middleton Island, Middleton Island Airport, AK, United States (PAMD) 59-26N 146-18W 14M
Jun 03, 2020 - 04:51 PM EDT / 2020.06.03 2051 UTC
Wind: from the E (090 degrees) at 18 MPH (16 KT):0
Visibility: 10 mile(s):0
Sky conditions: clear
Temperature: 50.0 F (10.0 C)
Dew Point: 46.0 F (7.8 C)
Relative Humidity: 86%
Pressure (altimeter): 29.96 in. Hg (1014 hPa)
Pressure tendency: 0.04 inches (1.2 hPa) higher than three hours ago
ob: PAMD 032051Z AUTO 09016KT 10SM CLR 10/08 A2996 RMK AO2 SLP133 T01000078 52012
cycle: 21

Station Type Date Time Source
PAMD TAF UTC NOAA

Error!

Example: see airport list